Time;durP1;ratioP1;P1;durP2;ratioP2;P2;SDS_P1;SDS_P2;PMS_P1;PMS_P2;Temp;Humidity;BMP_temperature;BMP_pressure;BME280_temperature;BME280_humidity;BME280_pressure;Samples;Min_cycle;Max_cycle;Signal;HPM_P1;HPM_P2
2022/07/15 00:00:39;;;;;;;;;;;15.40;99.90;;;;;;5091773;28;19924;-75
2022/07/15 00:03:05;;;;;;;;;;;15.40;99.90;;;;;;5091054;28;19978;-75
2022/07/15 00:05:31;;;;;;;;;;;15.40;99.90;;;;;;5091553;28;19990;-75
2022/07/15 00:08:00;;;;;;;;;;;15.40;99.90;;;;;;5089747;28;19924;-75
2022/07/15 00:10:26;;;;;;;;;;;15.30;99.90;;;;;;5091575;28;19982;-75
2022/07/15 00:12:53;;;;;;;;;;;15.40;99.90;;;;;;5090952;28;19955;-75
2022/07/15 00:15:20;;;;;;;;;;;15.30;99.90;;;;;;5091533;28;19946;-75
2022/07/15 00:17:46;;;;;;;;;;;15.30;99.90;;;;;;5090863;28;19924;-75
2022/07/15 00:20:12;;;;;;;;;;;15.40;99.90;;;;;;5079041;28;20523;-75
2022/07/15 00:22:38;;;;;;;;;;;15.40;99.90;;;;;;5090300;28;20386;-75
2022/07/15 00:25:04;;;;;;;;;;;15.30;99.90;;;;;;5079005;28;20703;-75
2022/07/15 00:27:30;;;;;;;;;;;15.30;99.90;;;;;;5076358;28;19930;-75
2022/07/15 00:29:55;;;;;;;;;;;15.40;99.90;;;;;;5079410;28;19928;-75
2022/07/15 00:32:21;;;;;;;;;;;15.30;99.90;;;;;;5077537;28;19924;-75
2022/07/15 00:34:47;;;;;;;;;;;15.40;99.90;;;;;;5079365;28;19924;-75
2022/07/15 00:37:13;;;;;;;;;;;15.30;99.90;;;;;;5072602;28;19931;-75
2022/07/15 00:39:38;;;;;;;;;;;15.30;99.90;;;;;;5083361;28;19969;-75
2022/07/15 00:42:04;;;;;;;;;;;15.30;99.90;;;;;;5090361;28;20304;-75
2022/07/15 00:44:30;;;;;;;;;;;15.40;99.90;;;;;;5091304;28;20397;-75
2022/07/15 00:46:56;;;;;;;;;;;15.40;99.90;;;;;;5090386;28;19924;-75
2022/07/15 00:49:21;;;;;;;;;;;15.40;99.90;;;;;;5090566;28;19931;-75
2022/07/15 00:51:49;;;;;;;;;;;15.40;99.90;;;;;;5088613;28;20009;-75
2022/07/15 00:54:15;;;;;;;;;;;15.40;99.90;;;;;;5085987;28;19928;-75
2022/07/15 00:56:46;;;;;;;;;;;15.40;99.90;;;;;;5090754;28;20289;-75
2022/07/15 00:59:12;;;;;;;;;;;15.40;99.90;;;;;;5090568;28;19932;-75
2022/07/15 01:01:37;;;;;;;;;;;15.40;99.90;;;;;;5077180;28;19931;-75
2022/07/15 01:04:04;;;;;;;;;;;15.40;99.90;;;;;;5090039;28;20473;-75
2022/07/15 01:06:29;;;;;;;;;;;15.40;99.90;;;;;;5090525;28;19928;-75
2022/07/15 01:08:55;;;;;;;;;;;15.30;99.90;;;;;;5088168;28;20342;-75
2022/07/15 01:11:20;;;;;;;;;;;15.20;99.90;;;;;;5090157;28;19928;-75
2022/07/15 01:13:46;;;;;;;;;;;15.20;99.90;;;;;;5089968;28;20387;-75
2022/07/15 01:16:11;;;;;;;;;;;15.10;99.90;;;;;;5090671;28;20374;-75
2022/07/15 01:18:37;;;;;;;;;;;15.10;99.90;;;;;;5088892;28;19961;-75
2022/07/15 01:21:02;;;;;;;;;;;15.00;99.90;;;;;;5089804;28;20390;-75
2022/07/15 01:23:28;;;;;;;;;;;15.00;99.90;;;;;;5089942;28;19935;-75
2022/07/15 01:25:53;;;;;;;;;;;14.90;99.90;;;;;;5088527;28;19928;-75
2022/07/15 01:28:19;;;;;;;;;;;14.80;99.90;;;;;;5090649;28;20301;-75
2022/07/15 01:30:45;;;;;;;;;;;14.80;99.90;;;;;;5083678;28;19924;-75
2022/07/15 01:33:11;;;;;;;;;;;14.70;99.90;;;;;;5069678;28;20325;-75
2022/07/15 01:35:36;;;;;;;;;;;14.70;99.90;;;;;;5083920;28;19925;-75
2022/07/15 01:38:02;;;;;;;;;;;14.70;99.90;;;;;;5082505;28;19969;-75
2022/07/15 01:40:27;;;;;;;;;;;14.70;99.90;;;;;;5083900;28;20567;-75
2022/07/15 01:42:53;;;;;;;;;;;14.70;99.90;;;;;;5082573;28;19928;-75
2022/07/15 01:45:18;;;;;;;;;;;14.70;99.90;;;;;;5071535;28;19993;-75
2022/07/15 01:47:45;;;;;;;;;;;14.70;99.90;;;;;;5082321;28;19924;-75
2022/07/15 01:50:11;;;;;;;;;;;14.60;99.90;;;;;;5084047;28;19929;-75
2022/07/15 01:52:36;;;;;;;;;;;14.60;99.90;;;;;;5069901;28;20428;-74
2022/07/15 01:55:02;;;;;;;;;;;14.60;99.90;;;;;;5076214;28;19928;-75
2022/07/15 01:57:28;;;;;;;;;;;14.60;99.90;;;;;;5087634;28;19935;-75
2022/07/15 01:59:53;;;;;;;;;;;14.60;99.90;;;;;;5088419;28;19928;-75
2022/07/15 02:02:19;;;;;;;;;;;14.50;99.90;;;;;;5078117;28;20378;-75
2022/07/15 02:04:44;;;;;;;;;;;14.50;99.90;;;;;;5083192;28;19932;-75
2022/07/15 02:07:10;;;;;;;;;;;14.40;99.90;;;;;;5080864;28;19924;-75
2022/07/15 02:09:36;;;;;;;;;;;14.40;99.90;;;;;;5085051;28;19924;-75
2022/07/15 02:12:01;;;;;;;;;;;14.40;99.90;;;;;;5080426;28;19977;-75
2022/07/15 02:14:27;;;;;;;;;;;14.30;99.90;;;;;;5071865;28;19928;-75
2022/07/15 02:16:52;;;;;;;;;;;14.30;99.90;;;;;;5080757;28;20345;-75
2022/07/15 02:19:18;;;;;;;;;;;14.20;99.90;;;;;;5089532;28;20359;-75
2022/07/15 02:21:44;;;;;;;;;;;14.20;99.90;;;;;;5089520;28;19977;-75
2022/07/15 02:24:09;;;;;;;;;;;14.20;99.90;;;;;;5071734;28;20018;-75
2022/07/15 02:26:35;;;;;;;;;;;14.10;99.90;;;;;;5070173;28;19925;-75
2022/07/15 02:29:01;;;;;;;;;;;14.10;99.90;;;;;;5071100;28;19931;-74
2022/07/15 02:31:27;;;;;;;;;;;14.10;99.90;;;;;;5081293;28;20347;-74
2022/07/15 02:33:52;;;;;;;;;;;14.00;99.90;;;;;;5072200;28;20408;-73
2022/07/15 02:36:18;;;;;;;;;;;14.00;99.90;;;;;;5079908;28;20028;-75
2022/07/15 02:38:43;;;;;;;;;;;14.00;99.90;;;;;;5077105;28;19969;-74
2022/07/15 02:41:11;;;;;;;;;;;14.10;99.90;;;;;;5089168;28;19931;-74
2022/07/15 02:43:37;;;;;;;;;;;14.10;99.90;;;;;;5076555;28;19967;-74
2022/07/15 02:46:03;;;;;;;;;;;14.20;99.90;;;;;;5089147;28;20359;-74
2022/07/15 02:48:28;;;;;;;;;;;14.20;99.90;;;;;;5089156;28;19934;-74
2022/07/15 02:50:54;;;;;;;;;;;14.20;99.90;;;;;;5080993;28;19960;-74
2022/07/15 02:53:21;;;;;;;;;;;14.30;99.90;;;;;;5079528;28;19924;-74
2022/07/15 02:55:47;;;;;;;;;;;14.30;99.90;;;;;;5092903;28;19924;-74
2022/07/15 02:58:12;;;;;;;;;;;14.40;99.90;;;;;;5080682;28;19931;-74
2022/07/15 03:00:38;;;;;;;;;;;14.40;99.90;;;;;;5082094;28;19968;-74
2022/07/15 03:03:03;;;;;;;;;;;14.30;99.90;;;;;;5090002;28;19924;-73
2022/07/15 03:05:29;;;;;;;;;;;14.30;99.90;;;;;;5092650;28;19924;-74
2022/07/15 03:07:55;;;;;;;;;;;14.20;99.90;;;;;;5075154;28;19935;-74
2022/07/15 03:10:20;;;;;;;;;;;14.20;99.90;;;;;;5084168;28;19928;-74
2022/07/15 03:12:46;;;;;;;;;;;14.10;99.90;;;;;;5092236;28;20394;-74
2022/07/15 03:15:11;;;;;;;;;;;14.10;99.90;;;;;;5081925;28;20286;-74
2022/07/15 03:17:39;;;;;;;;;;;14.10;99.90;;;;;;5076588;28;20037;-74
2022/07/15 03:20:06;;;;;;;;;;;14.10;99.90;;;;;;5092385;28;19924;-74
2022/07/15 03:22:31;;;;;;;;;;;14.10;99.90;;;;;;5079377;28;19985;-74
2022/07/15 03:24:57;;;;;;;;;;;14.00;99.90;;;;;;5081178;28;20411;-74
2022/07/15 03:27:22;;;;;;;;;;;14.00;99.90;;;;;;5072076;28;20579;-74
2022/07/15 03:29:49;;;;;;;;;;;14.00;99.90;;;;;;5072210;28;19924;-74
2022/07/15 03:32:15;;;;;;;;;;;14.00;99.90;;;;;;5076536;28;19924;-74
2022/07/15 03:34:41;;;;;;;;;;;14.10;99.90;;;;;;5090872;28;19924;-74
2022/07/15 03:37:07;;;;;;;;;;;14.10;99.90;;;;;;5091910;28;19928;-74
2022/07/15 03:39:32;;;;;;;;;;;14.10;99.90;;;;;;5092208;28;20561;-74
2022/07/15 03:41:58;;;;;;;;;;;14.20;99.90;;;;;;5091425;28;19924;-74
2022/07/15 03:44:23;;;;;;;;;;;14.20;99.90;;;;;;5091928;28;19928;-74
2022/07/15 03:46:49;;;;;;;;;;;14.30;99.90;;;;;;5087409;28;19931;-74
2022/07/15 03:49:15;;;;;;;;;;;14.30;99.90;;;;;;5083115;28;19930;-74
2022/07/15 03:51:41;;;;;;;;;;;14.20;99.90;;;;;;5087130;28;19931;-74
2022/07/15 03:54:07;;;;;;;;;;;14.20;99.90;;;;;;5082725;28;20003;-74
2022/07/15 03:56:33;;;;;;;;;;;14.20;99.90;;;;;;5072970;28;20367;-74
2022/07/15 03:58:58;;;;;;;;;;;14.20;99.90;;;;;;5080636;28;19925;-74
2022/07/15 04:01:24;;;;;;;;;;;14.20;99.90;;;;;;5091169;28;19986;-74
2022/07/15 04:03:50;;;;;;;;;;;14.20;99.90;;;;;;5091359;28;19974;-74
2022/07/15 04:06:16;;;;;;;;;;;14.20;99.90;;;;;;5090671;28;20588;-74
2022/07/15 04:08:42;;;;;;;;;;;14.20;99.90;;;;;;5091816;28;19928;-74
2022/07/15 04:11:08;;;;;;;;;;;14.30;99.90;;;;;;5091521;28;19969;-74
2022/07/15 04:13:33;;;;;;;;;;;14.30;99.90;;;;;;5091552;28;20752;-75
2022/07/15 04:15:59;;;;;;;;;;;14.30;99.90;;;;;;5077935;28;19985;-74
2022/07/15 04:18:24;;;;;;;;;;;14.30;99.90;;;;;;5091735;28;19924;-74
2022/07/15 04:20:50;;;;;;;;;;;14.40;99.90;;;;;;5086367;28;19925;-74
2022/07/15 04:23:15;;;;;;;;;;;14.40;99.90;;;;;;5071719;28;20409;-74
2022/07/15 04:25:41;;;;;;;;;;;14.40;99.90;;;;;;5075415;28;19931;-75
2022/07/15 04:28:07;;;;;;;;;;;14.50;99.90;;;;;;5091165;28;19935;-74
2022/07/15 04:30:33;;;;;;;;;;;14.50;99.90;;;;;;5092526;28;19924;-74
2022/07/15 04:32:58;;;;;;;;;;;14.50;99.90;;;;;;5089864;28;19924;-74
2022/07/15 04:35:24;;;;;;;;;;;14.50;99.90;;;;;;5077658;28;20086;-74
2022/07/15 04:37:49;;;;;;;;;;;14.50;99.90;;;;;;5089598;28;20313;-74
2022/07/15 04:40:15;;;;;;;;;;;14.60;99.90;;;;;;5074306;28;20473;-74
2022/07/15 04:42:40;;;;;;;;;;;14.60;99.90;;;;;;5081456;28;20302;-74
2022/07/15 04:45:06;;;;;;;;;;;14.60;99.90;;;;;;5090100;28;19928;-74
2022/07/15 04:47:32;;;;;;;;;;;14.70;99.90;;;;;;5091078;28;20459;-74
2022/07/15 04:52:45;;;;;;;;;;;14.60;99.90;;;;;;5071508;28;20601;-74
2022/07/15 04:55:10;;;;;;;;;;;14.60;99.90;;;;;;5088903;28;19924;-74
2022/07/15 04:57:36;;;;;;;;;;;14.60;99.90;;;;;;5077845;28;19953;-74
2022/07/15 05:00:03;;;;;;;;;;;14.70;99.90;;;;;;5090260;28;20385;-74
2022/07/15 05:02:28;;;;;;;;;;;14.70;99.90;;;;;;5090600;28;20069;-74
2022/07/15 05:04:54;;;;;;;;;;;14.70;99.90;;;;;;5089953;28;20010;-74
2022/07/15 05:07:19;;;;;;;;;;;14.80;99.90;;;;;;5090364;28;20003;-74
2022/07/15 05:09:45;;;;;;;;;;;14.80;99.90;;;;;;5070821;28;19932;-74
2022/07/15 05:12:11;;;;;;;;;;;14.90;99.90;;;;;;5083319;28;19935;-74
2022/07/15 05:14:40;;;;;;;;;;;14.90;99.90;;;;;;5069173;28;20306;-74
2022/07/15 05:17:06;;;;;;;;;;;15.00;99.90;;;;;;5069781;28;19925;-73
2022/07/15 05:19:32;;;;;;;;;;;15.10;99.90;;;;;;5083883;28;19974;-74
2022/07/15 05:21:57;;;;;;;;;;;15.10;99.90;;;;;;5083316;28;19967;-74
2022/07/15 05:24:23;;;;;;;;;;;15.20;99.90;;;;;;5090297;28;20404;-74
2022/07/15 05:26:48;;;;;;;;;;;15.20;99.90;;;;;;5089034;28;20007;-74
2022/07/15 05:29:14;;;;;;;;;;;15.20;99.90;;;;;;5070031;28;19924;-74
2022/07/15 05:31:39;;;;;;;;;;;15.30;99.90;;;;;;5070081;28;19931;-75
2022/07/15 05:34:05;;;;;;;;;;;15.20;99.90;;;;;;5087948;28;20007;-74
2022/07/15 05:36:30;;;;;;;;;;;15.20;99.90;;;;;;5089879;28;19924;-73
2022/07/15 05:38:56;;;;;;;;;;;15.10;99.90;;;;;;5089770;28;19932;-74
2022/07/15 05:41:22;;;;;;;;;;;15.10;99.90;;;;;;5076857;28;19925;-74
2022/07/15 05:43:47;;;;;;;;;;;15.10;99.90;;;;;;5076334;28;19993;-74
2022/07/15 05:46:13;;;;;;;;;;;15.20;99.90;;;;;;5089911;28;19934;-71
2022/07/15 05:48:40;;;;;;;;;;;15.20;99.90;;;;;;5090842;28;19924;-73
2022/07/15 05:51:06;;;;;;;;;;;15.30;99.90;;;;;;5081845;28;19924;-73
2022/07/15 05:53:32;;;;;;;;;;;15.40;99.90;;;;;;5082593;28;19975;-74
2022/07/15 05:55:58;;;;;;;;;;;15.50;99.90;;;;;;5082520;28;19939;-74
2022/07/15 05:58:23;;;;;;;;;;;15.70;99.90;;;;;;5076465;28;19931;-74
2022/07/15 06:00:52;;;;;;;;;;;15.80;99.90;;;;;;5089701;28;19938;-74
2022/07/15 06:03:18;;;;;;;;;;;16.10;99.90;;;;;;5075164;28;19932;-74
2022/07/15 06:05:44;;;;;;;;;;;16.30;99.90;;;;;;5089840;28;19931;-74
2022/07/15 06:08:10;;;;;;;;;;;16.50;99.90;;;;;;5088581;28;19931;-74
2022/07/15 06:10:36;;;;;;;;;;;16.50;99.90;;;;;;5089306;28;19971;-74
2022/07/15 06:13:02;;;;;;;;;;;16.60;99.90;;;;;;5089259;28;19994;-74
2022/07/15 06:15:28;;;;;;;;;;;16.60;99.90;;;;;;5089231;28;19924;-74
2022/07/15 06:17:53;;;;;;;;;;;16.60;99.90;;;;;;5089107;28;19936;-74
2022/07/15 06:20:19;;;;;;;;;;;16.60;99.90;;;;;;5089324;28;20342;-74
2022/07/15 06:22:45;;;;;;;;;;;16.70;99.90;;;;;;5089355;28;19924;-74
2022/07/15 06:25:11;;;;;;;;;;;16.70;99.90;;;;;;5091227;28;19924;-74
2022/07/15 06:27:40;;;;;;;;;;;16.80;99.90;;;;;;5093372;28;19931;-74
2022/07/15 06:30:06;;;;;;;;;;;16.70;99.90;;;;;;5080524;28;20298;-74
2022/07/15 06:32:31;;;;;;;;;;;16.70;99.90;;;;;;5080102;28;19928;-75
2022/07/15 06:34:57;;;;;;;;;;;16.60;99.90;;;;;;5092846;28;19934;-75
2022/07/15 06:37:22;;;;;;;;;;;16.50;99.90;;;;;;5092173;28;20400;-74
2022/07/15 06:39:48;;;;;;;;;;;16.50;99.90;;;;;;5093458;28;20316;-74
2022/07/15 06:42:14;;;;;;;;;;;16.30;99.90;;;;;;5093164;28;19947;-75
2022/07/15 06:44:40;;;;;;;;;;;16.20;99.90;;;;;;5093386;28;19928;-75
2022/07/15 06:47:06;;;;;;;;;;;16.10;99.90;;;;;;5086105;28;20279;-75
2022/07/15 06:49:32;;;;;;;;;;;16.00;99.90;;;;;;5086220;28;19924;-74
2022/07/15 06:51:58;;;;;;;;;;;15.80;99.90;;;;;;5079524;28;20266;-74
2022/07/15 06:54:24;;;;;;;;;;;15.60;99.90;;;;;;5092824;28;19931;-75
2022/07/15 06:56:50;;;;;;;;;;;15.50;99.90;;;;;;5086403;28;20367;-75
2022/07/15 06:59:15;;;;;;;;;;;15.40;99.90;;;;;;5084736;28;19997;-74
2022/07/15 07:01:41;;;;;;;;;;;15.40;99.90;;;;;;5086703;28;20015;-74
2022/07/15 07:04:06;;;;;;;;;;;15.40;99.90;;;;;;5072680;28;19938;-74
2022/07/15 07:06:32;;;;;;;;;;;15.40;99.90;;;;;;5072924;28;20302;-74
2022/07/15 07:08:58;;;;;;;;;;;15.50;99.90;;;;;;5072245;28;19928;-74
2022/07/15 07:11:24;;;;;;;;;;;15.60;99.90;;;;;;5091935;28;19928;-75
2022/07/15 07:13:50;;;;;;;;;;;15.80;99.90;;;;;;5092440;28;20275;-75
2022/07/15 07:16:16;;;;;;;;;;;16.00;99.90;;;;;;5091906;28;19924;-75
2022/07/15 07:18:41;;;;;;;;;;;16.30;99.90;;;;;;5092170;28;20390;-73
2022/07/15 07:21:07;;;;;;;;;;;16.40;99.90;;;;;;5086649;28;20477;-75
2022/07/15 07:23:34;;;;;;;;;;;16.40;99.90;;;;;;5072449;28;19924;-74
2022/07/15 07:25:59;;;;;;;;;;;16.50;99.90;;;;;;5072234;28;19924;-75
2022/07/15 07:28:25;;;;;;;;;;;16.60;99.90;;;;;;5084789;28;19924;-74
2022/07/15 07:30:52;;;;;;;;;;;16.60;99.90;;;;;;5091361;28;20014;-75
2022/07/15 07:33:18;;;;;;;;;;;16.70;99.90;;;;;;5090434;28;19928;-75
2022/07/15 07:35:44;;;;;;;;;;;16.80;99.90;;;;;;5085498;28;20440;-75
2022/07/15 07:38:10;;;;;;;;;;;16.90;99.90;;;;;;5083130;28;19924;-74
2022/07/15 07:40:35;;;;;;;;;;;16.90;99.90;;;;;;5085911;28;20470;-74
2022/07/15 07:43:01;;;;;;;;;;;16.90;99.90;;;;;;5072255;28;19924;-75
2022/07/15 07:45:28;;;;;;;;;;;16.90;99.90;;;;;;5091281;28;20022;-74
2022/07/15 07:47:54;;;;;;;;;;;16.90;99.90;;;;;;5091803;28;20274;-74
2022/07/15 07:50:20;;;;;;;;;;;16.90;99.90;;;;;;5085919;28;20024;-75
2022/07/15 07:52:46;;;;;;;;;;;16.90;99.90;;;;;;5071874;28;20015;-75
2022/07/15 07:55:12;;;;;;;;;;;17.00;99.90;;;;;;5091573;28;19932;-75
2022/07/15 07:57:51;;;;;;;;;;;17.00;99.90;;;;;;5079360;28;20325;-74
2022/07/15 08:00:17;;;;;;;;;;;17.00;99.90;;;;;;5083170;28;20027;-75
2022/07/15 08:02:42;;;;;;;;;;;17.00;99.90;;;;;;5085897;28;19940;-75
2022/07/15 08:05:08;;;;;;;;;;;17.00;99.90;;;;;;5082944;28;19925;-75
2022/07/15 08:07:35;;;;;;;;;;;16.90;99.90;;;;;;5085239;28;20003;-75
2022/07/15 08:10:02;;;;;;;;;;;16.80;99.90;;;;;;5079896;28;19931;-74
2022/07/15 08:12:28;;;;;;;;;;;16.70;99.90;;;;;;5090930;28;19925;-75
2022/07/15 08:14:54;;;;;;;;;;;16.80;99.90;;;;;;5091646;28;20267;-75
2022/07/15 08:17:20;;;;;;;;;;;17.00;99.90;;;;;;5076381;28;19924;-74
2022/07/15 08:19:46;;;;;;;;;;;17.20;99.90;;;;;;5079943;28;19930;-75
2022/07/15 08:22:12;;;;;;;;;;;17.50;99.90;;;;;;5089288;28;19928;-75
2022/07/15 08:24:37;;;;;;;;;;;17.70;99.90;;;;;;5070914;28;19924;-74
2022/07/15 08:27:03;;;;;;;;;;;17.80;99.90;;;;;;5073057;28;20023;-75
2022/07/15 08:29:28;;;;;;;;;;;17.80;99.90;;;;;;5083214;28;20014;-75
2022/07/15 08:31:54;;;;;;;;;;;17.80;99.90;;;;;;5070800;28;20342;-74
2022/07/15 08:34:19;;;;;;;;;;;17.90;99.90;;;;;;5079187;28;20358;-75
2022/07/15 08:36:45;;;;;;;;;;;18.10;99.90;;;;;;5090703;28;20022;-74
2022/07/15 08:39:11;;;;;;;;;;;18.10;99.90;;;;;;5089767;28;19939;-75
2022/07/15 08:41:37;;;;;;;;;;;18.10;99.90;;;;;;5089311;28;19971;-75
2022/07/15 08:44:03;;;;;;;;;;;18.10;99.90;;;;;;5070658;28;19971;-75
2022/07/15 08:46:28;;;;;;;;;;;18.10;99.90;;;;;;5072467;28;19928;-74
2022/07/15 08:48:58;;;;;;;;;;;18.10;99.90;;;;;;5082229;28;19935;-74
2022/07/15 08:51:24;;;;;;;;;;;18.10;99.90;;;;;;5086308;28;19931;-75
2022/07/15 08:53:51;;;;;;;;;;;18.20;99.90;;;;;;5089016;28;19977;-74
2022/07/15 08:56:18;;;;;;;;;;;18.30;99.90;;;;;;5077075;28;19924;-74
2022/07/15 08:58:44;;;;;;;;;;;18.50;99.90;;;;;;5089686;28;19930;-75
2022/07/15 09:01:09;;;;;;;;;;;18.60;99.90;;;;;;5089922;28;20018;-75
2022/07/15 09:03:35;;;;;;;;;;;18.60;99.90;;;;;;5090798;28;19970;-75
2022/07/15 09:06:00;;;;;;;;;;;18.70;99.90;;;;;;5090114;28;19928;-74
2022/07/15 09:08:26;;;;;;;;;;;18.90;99.90;;;;;;5090365;28;19928;-75
2022/07/15 09:10:53;;;;;;;;;;;19.20;99.90;;;;;;5090176;28;19928;-75
2022/07/15 09:13:30;;;;;;;;;;;19.30;99.50;;;;;;5090533;28;19928;-75
2022/07/15 09:15:56;;;;;;;;;;;19.30;99.30;;;;;;5086447;28;20329;-74
2022/07/15 09:18:24;;;;;;;;;;;19.10;98.90;;;;;;5070415;28;19931;-75
2022/07/15 09:20:49;;;;;;;;;;;19.00;99.40;;;;;;5084006;28;19935;-75
2022/07/15 09:23:20;;;;;;;;;;;18.80;99.60;;;;;;5070166;28;19925;-73
2022/07/15 09:25:47;;;;;;;;;;;18.80;99.40;;;;;;5073649;28;19924;-75
2022/07/15 09:28:12;;;;;;;;;;;18.70;99.60;;;;;;5078274;28;19963;-75
2022/07/15 09:33:40;;;;;;;;;;;18.70;99.20;;;;;;5070237;28;19924;-74
2022/07/15 09:36:18;;;;;;;;;;;18.90;99.10;;;;;;5069874;28;19931;-75
2022/07/15 09:38:55;;;;;;;;;;;19.30;98.90;;;;;;5083124;28;20299;-75
2022/07/15 09:41:25;;;;;;;;;;;19.50;97.10;;;;;;5069595;28;20027;-75
2022/07/15 09:43:55;;;;;;;;;;;19.60;97.60;;;;;;5089535;28;19924;-75
2022/07/15 09:46:22;;;;;;;;;;;19.60;96.70;;;;;;5074764;28;20353;-75
2022/07/15 09:48:48;;;;;;;;;;;19.60;97.00;;;;;;5075550;28;19924;-75
2022/07/15 09:51:14;;;;;;;;;;;19.50;97.10;;;;;;5087661;28;20396;-75
2022/07/15 09:53:40;;;;;;;;;;;19.30;96.70;;;;;;5077756;28;19958;-75
2022/07/15 09:56:11;;;;;;;;;;;19.20;96.80;;;;;;5076895;28;20388;-74
2022/07/15 09:58:37;;;;;;;;;;;19.10;97.20;;;;;;5088235;28;20027;-74
2022/07/15 10:01:03;;;;;;;;;;;19.10;97.10;;;;;;5075702;28;19925;-75
2022/07/15 10:03:28;;;;;;;;;;;19.40;97.60;;;;;;5082653;28;19929;-75
2022/07/15 10:05:54;;;;;;;;;;;19.60;96.90;;;;;;5083864;28;20427;-75
2022/07/15 10:08:20;;;;;;;;;;;19.50;96.30;;;;;;5082020;28;19925;-75
2022/07/15 10:10:48;;;;;;;;;;;19.30;96.80;;;;;;5071153;28;20298;-74
2022/07/15 10:13:34;;;;;;;;;;;19.10;96.90;;;;;;5081959;28;19978;-75
2022/07/15 10:16:14;;;;;;;;;;;19.00;97.20;;;;;;5083318;28;20307;-75
2022/07/15 10:18:55;;;;;;;;;;;19.00;97.20;;;;;;5082953;28;19924;-74
2022/07/15 10:21:32;;;;;;;;;;;19.10;97.50;;;;;;5069867;28;20472;-75
2022/07/15 10:24:04;;;;;;;;;;;19.20;97.60;;;;;;5069944;28;19959;-73
2022/07/15 10:26:35;;;;;;;;;;;19.40;97.60;;;;;;5070086;28;19924;-75
2022/07/15 10:29:05;;;;;;;;;;;19.50;97.00;;;;;;5074323;28;19924;-75
2022/07/15 10:31:32;;;;;;;;;;;19.40;96.40;;;;;;5077487;28;19931;-75
2022/07/15 10:34:03;;;;;;;;;;;19.30;96.50;;;;;;5069341;28;20011;-75
2022/07/15 10:36:47;;;;;;;;;;;19.40;96.80;;;;;;5068542;28;19979;-75
2022/07/15 10:39:13;;;;;;;;;;;19.40;96.20;;;;;;5077223;28;19935;-75
2022/07/15 10:41:57;;;;;;;;;;;19.40;96.30;;;;;;5088360;28;20377;-74
2022/07/15 10:44:23;;;;;;;;;;;19.40;95.90;;;;;;5077683;28;19929;-75
2022/07/15 10:47:09;;;;;;;;;;;19.40;95.90;;;;;;5087197;28;19924;-75
2022/07/15 10:49:34;;;;;;;;;;;19.40;95.90;;;;;;5065219;28;20019;-74
2022/07/15 10:52:11;;;;;;;;;;;19.50;95.60;;;;;;5076797;28;20441;-75
2022/07/15 10:54:39;;;;;;;;;;;19.60;95.10;;;;;;5086836;28;20028;-75
2022/07/15 10:57:04;;;;;;;;;;;19.70;94.50;;;;;;5078085;28;20302;-74
2022/07/15 10:59:34;;;;;;;;;;;19.70;94.40;;;;;;5089143;28;19924;-75
2022/07/15 11:02:00;;;;;;;;;;;19.80;94.20;;;;;;5089134;28;19928;-75
2022/07/15 11:04:35;;;;;;;;;;;19.90;94.20;;;;;;5088468;28;20339;-75
2022/07/15 11:07:10;;;;;;;;;;;20.00;94.10;;;;;;5087582;28;19931;-75
2022/07/15 11:09:54;;;;;;;;;;;19.90;94.50;;;;;;5088546;28;19924;-75
2022/07/15 11:12:28;;;;;;;;;;;19.80;94.10;;;;;;5090754;28;20400;-75
2022/07/15 11:15:14;;;;;;;;;;;19.60;93.70;;;;;;5080542;28;19950;-75
2022/07/15 11:17:42;;;;;;;;;;;19.40;94.10;;;;;;5092492;28;19946;-75
2022/07/15 11:20:11;;;;;;;;;;;19.30;94.20;;;;;;5092672;28;19982;-75
2022/07/15 11:22:38;;;;;;;;;;;19.30;94.50;;;;;;5092118;28;19928;-74
2022/07/15 11:25:04;;;;;;;;;;;19.20;94.60;;;;;;5092297;28;20051;-74
2022/07/15 11:27:30;;;;;;;;;;;19.20;94.90;;;;;;5091498;28;20330;-75
2022/07/15 11:30:02;;;;;;;;;;;19.20;95.30;;;;;;5092127;28;19982;-75
2022/07/15 11:32:28;;;;;;;;;;;19.40;95.60;;;;;;5091664;28;19924;-75
2022/07/15 11:34:55;;;;;;;;;;;19.40;95.00;;;;;;5090519;28;20746;-75
2022/07/15 11:37:25;;;;;;;;;;;19.40;95.30;;;;;;5090825;28;19924;-75
2022/07/15 11:40:04;;;;;;;;;;;19.50;95.00;;;;;;5090940;28;20039;-75
2022/07/15 11:45:14;;;;;;;;;;;19.70;94.60;;;;;;5090964;28;19924;-75
2022/07/15 11:47:50;;;;;;;;;;;19.80;94.50;;;;;;5090952;28;19969;-75
2022/07/15 11:50:16;;;;;;;;;;;19.80;93.90;;;;;;5091174;28;20022;-75
2022/07/15 11:52:41;;;;;;;;;;;19.80;94.40;;;;;;5092145;28;20054;-75
2022/07/15 11:55:07;;;;;;;;;;;19.90;94.10;;;;;;5089143;28;19931;-75
2022/07/15 11:57:34;;;;;;;;;;;19.80;93.80;;;;;;5090786;28;19931;-75
2022/07/15 12:00:00;;;;;;;;;;;19.80;94.30;;;;;;5091731;28;19982;-75
2022/07/15 12:02:26;;;;;;;;;;;19.90;94.70;;;;;;5091361;28;19956;-75
2022/07/15 12:05:00;;;;;;;;;;;19.90;94.60;;;;;;5073596;28;20024;-75
2022/07/15 12:07:37;;;;;;;;;;;19.80;94.00;;;;;;5091522;28;20378;-75
2022/07/15 12:10:03;;;;;;;;;;;19.70;94.20;;;;;;5091629;28;20397;-75
2022/07/15 12:12:29;;;;;;;;;;;19.60;93.90;;;;;;5091111;28;19928;-75
2022/07/15 12:14:54;;;;;;;;;;;19.40;93.90;;;;;;5091207;28;19924;-75
2022/07/15 12:17:20;;;;;;;;;;;19.20;94.80;;;;;;5090675;28;20329;-74
2022/07/15 12:19:46;;;;;;;;;;;19.00;95.60;;;;;;5090599;28;19924;-75
2022/07/15 12:22:12;;;;;;;;;;;18.90;96.20;;;;;;5090237;28;19928;-75
2022/07/15 12:24:41;;;;;;;;;;;18.70;96.40;;;;;;5091060;28;19924;-75
2022/07/15 12:27:07;;;;;;;;;;;18.50;97.20;;;;;;5090550;28;19959;-75
2022/07/15 12:29:33;;;;;;;;;;;18.50;97.60;;;;;;5091193;28;19924;-75
2022/07/15 12:32:00;;;;;;;;;;;18.40;97.80;;;;;;5090100;28;19924;-75
2022/07/15 12:34:44;;;;;;;;;;;18.40;98.40;;;;;;5089263;28;19928;-75
2022/07/15 12:37:09;;;;;;;;;;;18.40;98.40;;;;;;5089415;28;19924;-75
2022/07/15 12:39:52;;;;;;;;;;;18.50;99.10;;;;;;5091338;28;19931;-75
2022/07/15 12:42:18;;;;;;;;;;;18.50;99.20;;;;;;5090087;28;20022;-75
2022/07/15 12:44:43;;;;;;;;;;;18.70;99.90;;;;;;5090814;28;20334;-74
2022/07/15 12:47:09;;;;;;;;;;;18.80;99.80;;;;;;5090558;28;19928;-75
2022/07/15 12:49:44;;;;;;;;;;;18.90;99.70;;;;;;5090987;28;19993;-75
2022/07/15 12:52:18;;;;;;;;;;;19.00;99.90;;;;;;5078737;28;20430;-75
2022/07/15 12:54:44;;;;;;;;;;;19.00;99.80;;;;;;5090684;28;19924;-75
2022/07/15 12:57:20;;;;;;;;;;;19.00;99.80;;;;;;5089005;28;19981;-75
2022/07/15 12:59:56;;;;;;;;;;;19.00;99.90;;;;;;5090221;28;20003;-75
2022/07/15 13:02:22;;;;;;;;;;;19.00;99.90;;;;;;5090902;28;20417;-75
2022/07/15 13:04:48;;;;;;;;;;;19.00;99.90;;;;;;5089954;28;19924;-75
2022/07/15 13:07:14;;;;;;;;;;;19.00;99.90;;;;;;5078013;28;19931;-75
2022/07/15 13:09:40;;;;;;;;;;;19.20;99.90;;;;;;5088862;28;19924;-75
2022/07/15 13:12:07;;;;;;;;;;;19.30;99.90;;;;;;5089939;28;20255;-75
2022/07/15 13:14:33;;;;;;;;;;;19.50;99.90;;;;;;5088571;28;19924;-75
2022/07/15 13:16:58;;;;;;;;;;;19.60;99.60;;;;;;5090149;28;19973;-75
2022/07/15 13:19:24;;;;;;;;;;;19.60;98.60;;;;;;5089598;28;19924;-75
2022/07/15 13:21:49;;;;;;;;;;;19.50;98.40;;;;;;5090197;28;19924;-74
2022/07/15 13:24:15;;;;;;;;;;;19.30;98.60;;;;;;5089636;28;20015;-75
2022/07/15 13:26:40;;;;;;;;;;;19.30;99.00;;;;;;5089256;28;19935;-75
2022/07/15 13:29:06;;;;;;;;;;;19.20;99.90;;;;;;5089039;28;19924;-76
2022/07/15 13:31:31;;;;;;;;;;;19.00;99.90;;;;;;5090372;28;19924;-75
2022/07/15 13:33:57;;;;;;;;;;;18.80;99.90;;;;;;5086760;28;19935;-75
2022/07/15 13:36:22;;;;;;;;;;;18.60;99.90;;;;;;5089863;28;19924;-75
2022/07/15 13:38:48;;;;;;;;;;;18.50;99.90;;;;;;5089386;28;19924;-75
2022/07/15 13:41:13;;;;;;;;;;;18.50;99.90;;;;;;5090117;28;19924;-75
2022/07/15 13:43:39;;;;;;;;;;;18.50;99.90;;;;;;5088671;28;19946;-75
2022/07/15 13:46:05;;;;;;;;;;;18.50;99.90;;;;;;5090212;28;19924;-75
2022/07/15 13:48:30;;;;;;;;;;;18.50;99.90;;;;;;5088670;28;19924;-75
2022/07/15 13:53:40;;;;;;;;;;;18.70;99.90;;;;;;5077892;28;19944;-75
2022/07/15 13:56:05;;;;;;;;;;;18.90;99.90;;;;;;5088194;28;19924;-75
2022/07/15 13:58:32;;;;;;;;;;;19.10;99.90;;;;;;5089345;28;19924;-75
2022/07/15 14:00:58;;;;;;;;;;;19.50;99.90;;;;;;5089595;28;20418;-75
2022/07/15 14:03:23;;;;;;;;;;;19.70;99.90;;;;;;5076069;28;20911;-75
2022/07/15 14:05:49;;;;;;;;;;;19.90;99.90;;;;;;5075102;28;19970;-75
2022/07/15 14:08:14;;;;;;;;;;;20.20;99.90;;;;;;5089564;28;19924;-75
2022/07/15 14:10:40;;;;;;;;;;;20.40;99.40;;;;;;5076614;28;19925;-75
2022/07/15 14:13:06;;;;;;;;;;;20.80;99.40;;;;;;5070397;28;19925;-75
2022/07/15 14:15:31;;;;;;;;;;;21.00;98.70;;;;;;5083235;28;19931;-75
2022/07/15 14:17:57;;;;;;;;;;;21.10;97.80;;;;;;5070389;28;19924;-75
2022/07/15 14:20:22;;;;;;;;;;;21.20;97.80;;;;;;5070003;28;19939;-76
2022/07/15 14:22:48;;;;;;;;;;;21.40;97.50;;;;;;5089067;28;19939;-75
2022/07/15 14:25:14;;;;;;;;;;;21.80;97.70;;;;;;5076082;28;20416;-75